createdAt,value
2023-10-09T00:03:43.793Z,38.30
2023-10-09T00:08:52.122Z,37.90
2023-10-09T00:13:58.569Z,37.90
2023-10-09T00:19:14.621Z,38.30
2023-10-09T00:24:25.329Z,37.90
2023-10-09T00:29:36.103Z,37.80
2023-10-09T00:34:41.687Z,38.20
2023-10-09T00:39:45.460Z,37.90
2023-10-09T00:44:52.172Z,37.90
2023-10-09T00:50:02.313Z,38.20
2023-10-09T00:55:14.821Z,37.90
2023-10-09T01:00:33.817Z,38.00
2023-10-09T01:05:37.779Z,38.30
2023-10-09T01:10:52.148Z,37.80
2023-10-09T01:15:59.741Z,38.80
2023-10-09T01:21:03.860Z,38.10
2023-10-09T01:26:08.376Z,37.90
2023-10-09T01:31:11.653Z,38.30
2023-10-09T01:36:16.750Z,38.00
2023-10-09T01:41:24.713Z,38.20
2023-10-09T01:46:27.829Z,38.70
2023-10-09T01:51:34.624Z,38.60
2023-10-09T01:56:43.019Z,38.70
2023-10-09T02:01:49.096Z,39.10
2023-10-09T02:06:53.804Z,39.50
2023-10-09T02:11:58.376Z,38.90
2023-10-09T02:17:04.762Z,39.40
2023-10-09T02:22:13.792Z,39.10
2023-10-09T02:27:41.187Z,39.10
2023-10-09T02:32:45.673Z,39.60
2023-10-09T02:37:48.935Z,39.30
2023-10-09T02:42:54.053Z,39.40
2023-10-09T02:47:57.522Z,39.90
2023-10-09T02:53:09.703Z,39.50
2023-10-09T02:58:22.144Z,39.60
2023-10-09T03:03:26.507Z,39.90
2023-10-09T03:08:30.425Z,39.50
2023-10-09T03:13:35.322Z,39.50
2023-10-09T03:18:38.619Z,39.90
2023-10-09T03:23:41.751Z,39.50
2023-10-09T03:28:46.284Z,39.60
2023-10-09T03:33:49.501Z,40.00
2023-10-09T03:38:55.870Z,39.70
2023-10-09T03:44:00.654Z,39.60
2023-10-09T03:49:11.655Z,40.10
2023-10-09T03:54:15.201Z,39.90
2023-10-09T03:59:21.093Z,39.80
2023-10-09T04:04:25.105Z,40.40
2023-10-09T04:09:41.109Z,40.10
2023-10-09T04:14:51.520Z,40.10
2023-10-09T04:20:21.551Z,40.50
2023-10-09T04:25:28.018Z,40.10
2023-10-09T04:30:41.632Z,40.40
2023-10-09T04:36:05.363Z,40.70
2023-10-09T04:41:10.242Z,40.50
2023-10-09T04:46:24.519Z,40.80
2023-10-09T04:51:37.453Z,41.10
2023-10-09T04:56:53.211Z,41.10
2023-10-09T05:02:00.540Z,41.40
2023-10-09T05:07:23.806Z,42.00
2023-10-09T05:12:30.181Z,41.60
2023-10-09T05:17:35.638Z,41.70
2023-10-09T05:22:39.009Z,42.30
2023-10-09T05:27:51.972Z,41.90
2023-10-09T05:33:00.750Z,42.00
2023-10-09T05:38:16.371Z,42.80
2023-10-09T05:43:33.354Z,42.30
2023-10-09T05:48:55.989Z,42.40
2023-10-09T05:59:51.411Z,42.40
2023-10-09T06:04:56.460Z,43.20
2023-10-09T06:10:11.720Z,42.80
2023-10-09T06:15:51.894Z,42.70
2023-10-09T06:21:11.133Z,43.10
2023-10-09T06:26:26.046Z,42.80
2023-10-09T06:31:50.566Z,42.90
2023-10-09T06:36:55.161Z,43.10
2023-10-09T06:42:10.636Z,42.70
2023-10-09T06:47:15.297Z,42.60
2023-10-09T06:52:38.377Z,42.60
2023-10-09T06:57:50.310Z,42.40
2023-10-09T07:02:55.133Z,42.10
2023-10-09T07:08:19.110Z,41.70
2023-10-09T07:13:25.548Z,41.70
2023-10-09T07:18:50.104Z,41.20
2023-10-09T07:23:57.864Z,41.00
2023-10-09T07:29:17.278Z,40.70
2023-10-09T07:34:53.710Z,40.40
2023-10-09T07:39:59.494Z,40.10
2023-10-09T07:45:14.442Z,40.00
2023-10-09T07:50:22.672Z,39.90
2023-10-09T07:55:30.958Z,39.90
2023-10-09T08:01:00.113Z,39.90
2023-10-09T08:06:30.899Z,39.70
2023-10-09T08:11:57.992Z,39.60
2023-10-09T08:17:12.775Z,39.50
2023-10-09T08:22:40.063Z,39.40
2023-10-09T08:27:55.900Z,39.40
2023-10-09T08:38:14.032Z,39.50
2023-10-09T08:43:19.487Z,39.50
2023-10-09T08:48:23.223Z,39.60
2023-10-09T08:53:29.225Z,39.60
2023-10-09T08:58:37.873Z,39.00
2023-10-09T09:03:45.113Z,39.20
2023-10-09T09:08:49.825Z,39.20
2023-10-09T09:14:06.285Z,38.70
2023-10-09T09:19:20.027Z,38.20
2023-10-09T09:24:34.453Z,38.30
2023-10-09T09:29:53.773Z,38.30
2023-10-09T09:34:57.332Z,38.10
2023-10-09T09:40:16.572Z,38.40
2023-10-09T09:45:24.527Z,38.10
2023-10-09T09:50:30.302Z,38.20
2023-10-09T09:55:37.236Z,38.40
2023-10-09T10:00:44.860Z,37.90
2023-10-09T10:05:50.454Z,38.00
2023-10-09T10:10:58.695Z,38.00
2023-10-09T10:16:15.356Z,38.00
2023-10-09T10:21:30.314Z,37.70
2023-10-09T10:26:36.220Z,38.30
2023-10-09T10:31:56.332Z,37.50
2023-10-09T10:37:02.521Z,38.00
2023-10-09T10:42:10.750Z,38.50
2023-10-09T10:47:26.086Z,37.50
2023-10-09T10:52:43.715Z,37.40
2023-10-09T10:58:11.148Z,37.40
2023-10-09T11:03:30.700Z,36.60
2023-10-09T11:08:34.605Z,36.40
2023-10-09T11:13:53.738Z,36.70
2023-10-09T11:18:58.687Z,36.50
2023-10-09T11:24:23.364Z,36.70
2023-10-09T11:29:53.659Z,37.00
2023-10-09T11:35:13.057Z,36.60
2023-10-09T11:40:49.236Z,36.00
2023-10-09T11:45:57.933Z,35.90
2023-10-09T11:51:15.814Z,36.00
2023-10-09T11:56:21.049Z,35.80
2023-10-09T12:01:27.683Z,35.40
2023-10-09T12:06:33.613Z,34.80
2023-10-09T12:11:40.879Z,35.50
2023-10-09T12:16:51.327Z,35.40
2023-10-09T12:21:55.246Z,34.80
2023-10-09T12:26:58.711Z,35.00
2023-10-09T12:32:04.657Z,35.40
2023-10-09T12:37:08.080Z,35.90
2023-10-09T12:42:13.218Z,35.90
2023-10-09T12:47:20.652Z,35.80
2023-10-09T12:52:31.302Z,35.70
2023-10-09T12:57:34.669Z,35.90
2023-10-09T13:02:44.793Z,36.00
2023-10-09T13:07:48.057Z,35.70
2023-10-09T13:12:56.881Z,36.10
2023-10-09T13:18:01.522Z,36.00
2023-10-09T13:23:05.901Z,35.80
2023-10-09T13:28:09.301Z,35.90
2023-10-09T13:33:18.384Z,36.10
2023-10-09T13:38:22.416Z,36.10
2023-10-09T13:43:27.071Z,36.10
2023-10-09T13:48:39.045Z,36.20
2023-10-09T13:53:47.003Z,36.00
2023-10-09T13:58:51.968Z,36.40
2023-10-09T14:03:59.957Z,36.30
2023-10-09T14:09:06.410Z,36.00
2023-10-09T14:14:12.479Z,35.90
2023-10-09T14:19:22.192Z,36.00
2023-10-09T14:24:34.206Z,35.60
2023-10-09T14:29:38.970Z,35.80
2023-10-09T14:34:48.224Z,35.70
2023-10-09T14:39:51.446Z,35.40
2023-10-09T14:44:57.041Z,35.50
2023-10-09T14:50:02.992Z,35.40
2023-10-09T14:55:07.139Z,35.30
2023-10-09T15:00:16.932Z,35.50
2023-10-09T15:05:24.154Z,35.20
2023-10-09T15:10:30.920Z,34.90
2023-10-09T15:15:34.323Z,35.10
2023-10-09T15:20:39.352Z,35.00
2023-10-09T15:25:46.328Z,34.90
2023-10-09T15:30:50.610Z,35.20
2023-10-09T15:35:55.568Z,34.90
2023-10-09T15:41:01.603Z,34.20
2023-10-09T15:46:05.752Z,34.50
2023-10-09T15:51:15.379Z,34.30
2023-10-09T15:56:19.523Z,33.40
2023-10-09T16:01:23.507Z,34.00
2023-10-09T16:06:32.634Z,33.90
2023-10-09T16:11:35.931Z,34.00
2023-10-09T16:16:42.737Z,34.00
2023-10-09T16:21:48.050Z,34.00
2023-10-09T16:26:52.537Z,33.90
2023-10-09T16:31:56.630Z,34.10
2023-10-09T16:37:01.414Z,34.30
2023-10-09T16:42:05.950Z,33.80
2023-10-09T16:47:12.568Z,34.30
2023-10-09T16:52:17.255Z,34.30
2023-10-09T16:57:20.387Z,34.80
2023-10-09T17:02:24.588Z,34.00
2023-10-09T17:07:29.460Z,34.10
2023-10-09T17:12:32.559Z,33.80
2023-10-09T17:17:35.769Z,33.80
2023-10-09T17:22:40.663Z,33.90
2023-10-09T17:27:44.094Z,33.80
2023-10-09T17:32:47.742Z,34.00
2023-10-09T17:37:53.127Z,33.90
2023-10-09T17:42:57.140Z,33.80
2023-10-09T17:48:06.637Z,33.80
2023-10-09T17:53:13.176Z,33.90
2023-10-09T17:58:18.099Z,33.70
2023-10-09T18:03:21.384Z,33.80
2023-10-09T18:08:26.948Z,33.80
2023-10-09T18:13:30.340Z,33.80
2023-10-09T18:18:34.370Z,34.00
2023-10-09T18:23:45.510Z,33.80
2023-10-09T18:28:49.586Z,33.90
2023-10-09T18:33:54.398Z,33.90
2023-10-09T18:38:59.318Z,34.10
2023-10-09T18:44:05.742Z,34.20
2023-10-09T18:49:11.360Z,35.00
2023-10-09T18:54:16.049Z,34.30
2023-10-09T18:59:24.394Z,34.40
2023-10-09T19:04:27.825Z,34.30
2023-10-09T19:09:32.532Z,34.30
2023-10-09T19:14:36.429Z,34.40
2023-10-09T19:19:40.229Z,34.40
2023-10-09T19:24:46.644Z,34.40
2023-10-09T19:29:49.742Z,34.60
2023-10-09T19:34:53.024Z,34.60
2023-10-09T19:39:57.576Z,34.60
2023-10-09T19:45:00.961Z,34.80
2023-10-09T19:50:05.326Z,35.00
2023-10-09T19:55:11.380Z,35.00
2023-10-09T20:00:22.504Z,35.30
2023-10-09T20:05:28.634Z,35.30
2023-10-09T20:10:33.398Z,35.20
2023-10-09T20:15:36.621Z,35.70
2023-10-09T20:20:40.401Z,35.70
2023-10-09T20:25:46.965Z,35.90
2023-10-09T20:30:54.009Z,35.90
2023-10-09T20:36:04.240Z,35.80
2023-10-09T20:41:10.355Z,35.90
2023-10-09T20:46:13.850Z,36.20
2023-10-09T20:51:18.013Z,36.10
2023-10-09T20:56:23.430Z,36.50
2023-10-09T21:01:26.570Z,36.50
2023-10-09T21:06:29.726Z,36.40
2023-10-09T21:11:34.833Z,36.40
2023-10-09T21:16:38.073Z,36.70
2023-10-09T21:21:42.493Z,36.50
2023-10-09T21:26:46.963Z,36.60
2023-10-09T21:31:51.191Z,37.00
2023-10-09T21:36:54.347Z,36.60
2023-10-09T21:41:59.406Z,36.70
2023-10-09T21:47:02.597Z,37.10
2023-10-09T21:52:05.712Z,36.80
2023-10-09T21:57:10.549Z,37.10
2023-10-09T22:02:16.454Z,37.00
2023-10-09T22:07:32.341Z,36.90
2023-10-09T22:12:40.313Z,36.90
2023-10-09T22:17:45.635Z,36.90
2023-10-09T22:22:50.294Z,36.80
2023-10-09T22:28:03.249Z,36.70
2023-10-09T22:33:13.371Z,37.40
2023-10-09T22:38:17.453Z,37.30
2023-10-09T22:43:25.336Z,38.10
2023-10-09T22:48:28.844Z,37.60
2023-10-09T22:53:38.973Z,37.40
2023-10-09T22:58:52.218Z,37.70
2023-10-09T23:04:17.569Z,38.40
2023-10-09T23:09:32.092Z,38.30
2023-10-09T23:14:37.295Z,38.20
2023-10-09T23:19:45.397Z,38.70
2023-10-09T23:24:54.112Z,38.10
2023-10-09T23:30:06.751Z,38.40
2023-10-09T23:35:11.089Z,38.70
2023-10-09T23:40:16.422Z,38.40
2023-10-09T23:45:22.130Z,38.40
2023-10-09T23:50:25.436Z,38.80
2023-10-09T23:55:32.704Z,38.40
